sensor_id;sensor_type;location;lat;lon;timestamp;pressure;altitude;pressure_sealevel;temperature;humidity
64298;BME280;50639;53.270;7.956;2023-06-26T00:02:17;101269.31;;;22.38;63.76
64298;BME280;50639;53.270;7.956;2023-06-26T00:04:43;101275.00;;;22.37;63.81
64298;BME280;50639;53.270;7.956;2023-06-26T00:07:09;101265.75;;;22.38;63.30
64298;BME280;50639;53.270;7.956;2023-06-26T00:09:35;101262.53;;;22.41;63.71
64298;BME280;50639;53.270;7.956;2023-06-26T00:12:01;101270.13;;;22.39;63.35
64298;BME280;50639;53.270;7.956;2023-06-26T00:14:26;101273.09;;;22.37;63.81
64298;BME280;50639;53.270;7.956;2023-06-26T00:16:52;101261.59;;;22.30;64.02
64298;BME280;50639;53.270;7.956;2023-06-26T00:19:18;101266.19;;;22.25;64.08
64298;BME280;50639;53.270;7.956;2023-06-26T00:21:44;101258.56;;;22.27;63.97
64298;BME280;50639;53.270;7.956;2023-06-26T00:24:16;101248.25;;;22.29;63.86
64298;BME280;50639;53.270;7.956;2023-06-26T00:26:43;101259.09;;;22.24;63.89
64298;BME280;50639;53.270;7.956;2023-06-26T00:29:08;101256.38;;;22.24;64.07
64298;BME280;50639;53.270;7.956;2023-06-26T00:31:34;101251.44;;;22.21;64.32
64298;BME280;50639;53.270;7.956;2023-06-26T00:34:01;101255.69;;;22.11;64.81
64298;BME280;50639;53.270;7.956;2023-06-26T00:36:27;101240.44;;;22.10;64.25
64298;BME280;50639;53.270;7.956;2023-06-26T00:39:00;101245.59;;;22.07;64.63
64298;BME280;50639;53.270;7.956;2023-06-26T00:41:26;101243.97;;;22.11;64.60
64298;BME280;50639;53.270;7.956;2023-06-26T00:43:52;101245.31;;;22.08;64.93
64298;BME280;50639;53.270;7.956;2023-06-26T00:46:18;101236.03;;;22.04;64.62
64298;BME280;50639;53.270;7.956;2023-06-26T00:48:46;101234.38;;;22.03;64.71
64298;BME280;50639;53.270;7.956;2023-06-26T00:51:13;101235.13;;;21.99;64.67
64298;BME280;50639;53.270;7.956;2023-06-26T00:53:39;101227.06;;;22.04;64.39
64298;BME280;50639;53.270;7.956;2023-06-26T00:56:05;101233.06;;;22.06;64.33
64298;BME280;50639;53.270;7.956;2023-06-26T00:58:32;101228.44;;;22.06;64.63
64298;BME280;50639;53.270;7.956;2023-06-26T01:00:57;101210.97;;;22.02;64.91
64298;BME280;50639;53.270;7.956;2023-06-26T01:03:24;101209.25;;;21.96;64.98
64298;BME280;50639;53.270;7.956;2023-06-26T01:05:54;101211.66;;;21.93;64.70
64298;BME280;50639;53.270;7.956;2023-06-26T01:08:22;101206.78;;;21.95;64.64
64298;BME280;50639;53.270;7.956;2023-06-26T01:10:47;101205.03;;;21.84;65.03
64298;BME280;50639;53.270;7.956;2023-06-26T01:13:14;101208.31;;;21.86;65.10
64298;BME280;50639;53.270;7.956;2023-06-26T01:15:40;101198.53;;;21.85;65.11
64298;BME280;50639;53.270;7.956;2023-06-26T01:18:06;101204.53;;;21.87;65.04
64298;BME280;50639;53.270;7.956;2023-06-26T01:20:35;101196.03;;;21.83;65.04
64298;BME280;50639;53.270;7.956;2023-06-26T01:23:22;101194.09;;;21.78;65.45
64298;BME280;50639;53.270;7.956;2023-06-26T01:26:22;101185.94;;;21.78;65.66
64298;BME280;50639;53.270;7.956;2023-06-26T01:28:50;101176.16;;;21.77;65.56
64298;BME280;50639;53.270;7.956;2023-06-26T01:31:16;101167.75;;;21.79;65.34
64298;BME280;50639;53.270;7.956;2023-06-26T01:33:43;101180.50;;;21.78;65.11
64298;BME280;50639;53.270;7.956;2023-06-26T01:36:10;101177.72;;;21.73;65.78
64298;BME280;50639;53.270;7.956;2023-06-26T01:38:36;101165.78;;;21.74;65.29
64298;BME280;50639;53.270;7.956;2023-06-26T01:41:02;101168.00;;;21.77;65.25
64298;BME280;50639;53.270;7.956;2023-06-26T01:46:21;101165.25;;;21.77;65.31
64298;BME280;50639;53.270;7.956;2023-06-26T01:51:27;101150.25;;;21.70;65.64
64298;BME280;50639;53.270;7.956;2023-06-26T01:53:56;101150.16;;;21.65;65.59
64298;BME280;50639;53.270;7.956;2023-06-26T01:56:24;101143.91;;;21.64;65.86
64298;BME280;50639;53.270;7.956;2023-06-26T01:58:51;101145.25;;;21.62;65.76
64298;BME280;50639;53.270;7.956;2023-06-26T02:01:20;101150.38;;;21.58;66.28
64298;BME280;50639;53.270;7.956;2023-06-26T02:03:47;101139.50;;;21.58;66.09
64298;BME280;50639;53.270;7.956;2023-06-26T02:06:13;101141.63;;;21.56;65.91
64298;BME280;50639;53.270;7.956;2023-06-26T02:08:38;101140.28;;;21.54;66.34
64298;BME280;50639;53.270;7.956;2023-06-26T02:11:04;101140.28;;;21.54;66.22
64298;BME280;50639;53.270;7.956;2023-06-26T02:13:30;101135.59;;;21.49;66.27
64298;BME280;50639;53.270;7.956;2023-06-26T02:15:55;101137.19;;;21.45;66.24
64298;BME280;50639;53.270;7.956;2023-06-26T02:18:21;101133.31;;;21.41;66.78
64298;BME280;50639;53.270;7.956;2023-06-26T02:20:48;101135.41;;;21.34;67.12
64298;BME280;50639;53.270;7.956;2023-06-26T02:23:14;101127.75;;;21.31;67.07
64298;BME280;50639;53.270;7.956;2023-06-26T02:25:40;101126.94;;;21.30;67.04
64298;BME280;50639;53.270;7.956;2023-06-26T02:28:09;101120.38;;;21.26;67.03
64298;BME280;50639;53.270;7.956;2023-06-26T02:30:35;101112.72;;;21.23;67.43
64298;BME280;50639;53.270;7.956;2023-06-26T02:33:00;101116.28;;;21.24;67.11
64298;BME280;50639;53.270;7.956;2023-06-26T02:35:26;101113.56;;;21.24;67.11
64298;BME280;50639;53.270;7.956;2023-06-26T02:37:51;101114.63;;;21.23;67.41
64298;BME280;50639;53.270;7.956;2023-06-26T02:40:17;101122.22;;;21.21;67.37
64298;BME280;50639;53.270;7.956;2023-06-26T02:42:43;101111.88;;;21.18;67.60
64298;BME280;50639;53.270;7.956;2023-06-26T02:45:09;101107.72;;;21.15;67.51
64298;BME280;50639;53.270;7.956;2023-06-26T02:47:34;101112.69;;;21.18;67.32
64298;BME280;50639;53.270;7.956;2023-06-26T02:50:00;101113.94;;;21.11;67.79
64298;BME280;50639;53.270;7.956;2023-06-26T02:52:30;101107.38;;;21.12;67.68
64298;BME280;50639;53.270;7.956;2023-06-26T02:54:56;101104.13;;;21.10;67.87
64298;BME280;50639;53.270;7.956;2023-06-26T02:57:21;101090.53;;;21.10;67.60
64298;BME280;50639;53.270;7.956;2023-06-26T02:59:47;101104.13;;;21.10;67.40
64298;BME280;50639;53.270;7.956;2023-06-26T03:02:13;101096.69;;;21.00;68.16
64298;BME280;50639;53.270;7.956;2023-06-26T03:04:42;101096.44;;;21.01;67.98
64298;BME280;50639;53.270;7.956;2023-06-26T03:07:11;101102.34;;;20.98;68.20
64298;BME280;50639;53.270;7.956;2023-06-26T03:09:38;101094.53;;;21.02;68.18
64298;BME280;50639;53.270;7.956;2023-06-26T03:12:04;101098.38;;;21.06;67.82
64298;BME280;50639;53.270;7.956;2023-06-26T03:14:32;101095.28;;;20.97;68.32
64298;BME280;50639;53.270;7.956;2023-06-26T03:16:57;101093.97;;;21.00;68.12
64298;BME280;50639;53.270;7.956;2023-06-26T03:19:24;101083.91;;;21.00;68.17
64298;BME280;50639;53.270;7.956;2023-06-26T03:22:16;101086.38;;;21.02;68.12
64298;BME280;50639;53.270;7.956;2023-06-26T03:24:43;101081.81;;;21.08;68.42
64298;BME280;50639;53.270;7.956;2023-06-26T03:27:09;101085.66;;;21.12;68.04
64298;BME280;50639;53.270;7.956;2023-06-26T03:29:35;101088.28;;;21.23;67.62
64298;BME280;50639;53.270;7.956;2023-06-26T03:32:01;101078.81;;;21.26;67.63
64298;BME280;50639;53.270;7.956;2023-06-26T03:34:27;101074.69;;;21.23;67.48
64298;BME280;50639;53.270;7.956;2023-06-26T03:36:53;101083.63;;;21.19;67.99
64298;BME280;50639;53.270;7.956;2023-06-26T03:39:19;101073.13;;;21.27;67.86
64298;BME280;50639;53.270;7.956;2023-06-26T03:41:45;101075.25;;;21.25;67.92
64298;BME280;50639;53.270;7.956;2023-06-26T03:44:10;101077.75;;;21.27;67.84
64298;BME280;50639;53.270;7.956;2023-06-26T03:46:43;101070.50;;;21.16;68.32
64298;BME280;50639;53.270;7.956;2023-06-26T03:49:08;101065.84;;;21.33;67.59
64298;BME280;50639;53.270;7.956;2023-06-26T03:51:36;101066.16;;;21.36;67.50
64298;BME280;50639;53.270;7.956;2023-06-26T03:54:01;101067.47;;;21.34;67.96
64298;BME280;50639;53.270;7.956;2023-06-26T03:56:27;101067.84;;;21.43;67.40
64298;BME280;50639;53.270;7.956;2023-06-26T03:58:52;101061.59;;;21.42;67.65
64298;BME280;50639;53.270;7.956;2023-06-26T04:01:17;101058.38;;;21.45;67.42
64298;BME280;50639;53.270;7.956;2023-06-26T04:03:45;101053.91;;;21.34;68.32
64298;BME280;50639;53.270;7.956;2023-06-26T04:06:11;101047.50;;;21.45;67.33
64298;BME280;50639;53.270;7.956;2023-06-26T04:08:37;101055.56;;;21.40;67.95
64298;BME280;50639;53.270;7.956;2023-06-26T04:11:03;101053.69;;;21.40;68.19
64298;BME280;50639;53.270;7.956;2023-06-26T04:13:29;101055.38;;;21.47;67.81
64298;BME280;50639;53.270;7.956;2023-06-26T04:15:55;101056.88;;;21.32;68.50
64298;BME280;50639;53.270;7.956;2023-06-26T04:18:20;101052.00;;;21.34;69.31
64298;BME280;50639;53.270;7.956;2023-06-26T04:21:24;101055.00;;;21.38;68.50
64298;BME280;50639;53.270;7.956;2023-06-26T04:23:52;101044.66;;;21.35;68.86
64298;BME280;50639;53.270;7.956;2023-06-26T04:26:18;101044.31;;;21.53;67.94
64298;BME280;50639;53.270;7.956;2023-06-26T04:28:43;101040.66;;;21.43;68.67
64298;BME280;50639;53.270;7.956;2023-06-26T04:31:09;101042.44;;;21.59;68.01
64298;BME280;50639;53.270;7.956;2023-06-26T04:33:36;101038.88;;;21.53;68.60
64298;BME280;50639;53.270;7.956;2023-06-26T04:36:05;101037.16;;;21.47;68.64
64298;BME280;50639;53.270;7.956;2023-06-26T04:38:33;101045.88;;;21.49;69.16
64298;BME280;50639;53.270;7.956;2023-06-26T04:41:02;101057.91;;;21.53;68.63
64298;BME280;50639;53.270;7.956;2023-06-26T04:43:28;101048.22;;;21.67;68.10
64298;BME280;50639;53.270;7.956;2023-06-26T04:45:54;101057.94;;;21.58;68.28
64298;BME280;50639;53.270;7.956;2023-06-26T04:48:19;101046.19;;;21.53;68.60
64298;BME280;50639;53.270;7.956;2023-06-26T04:50:45;101049.22;;;21.56;68.80
64298;BME280;50639;53.270;7.956;2023-06-26T04:53:22;101045.25;;;21.37;69.49
64298;BME280;50639;53.270;7.956;2023-06-26T04:55:51;101051.16;;;21.61;68.55
64298;BME280;50639;53.270;7.956;2023-06-26T04:58:17;101056.91;;;21.64;68.82
64298;BME280;50639;53.270;7.956;2023-06-26T05:00:43;101049.09;;;21.73;68.59
64298;BME280;50639;53.270;7.956;2023-06-26T05:03:13;101041.38;;;21.92;68.11
64298;BME280;50639;53.270;7.956;2023-06-26T05:05:39;101043.44;;;22.06;67.23
64298;BME280;50639;53.270;7.956;2023-06-26T05:08:21;101040.72;;;22.06;67.19
64298;BME280;50639;53.270;7.956;2023-06-26T05:10:47;101036.53;;;21.99;66.76
64298;BME280;50639;53.270;7.956;2023-06-26T05:13:13;101027.44;;;22.15;66.45
64298;BME280;50639;53.270;7.956;2023-06-26T05:15:41;101032.47;;;22.33;65.49
64298;BME280;50639;53.270;7.956;2023-06-26T05:18:07;101029.16;;;22.31;65.29
64298;BME280;50639;53.270;7.956;2023-06-26T05:20:34;101022.47;;;22.49;64.53
64298;BME280;50639;53.270;7.956;2023-06-26T05:23:04;101026.84;;;22.55;64.61
64298;BME280;50639;53.270;7.956;2023-06-26T05:25:31;101026.59;;;22.57;64.32
64298;BME280;50639;53.270;7.956;2023-06-26T05:27:57;101020.63;;;22.70;64.55
64298;BME280;50639;53.270;7.956;2023-06-26T05:30:25;101025.56;;;22.73;64.54
64298;BME280;50639;53.270;7.956;2023-06-26T05:32:51;101019.38;;;22.87;63.39
64298;BME280;50639;53.270;7.956;2023-06-26T05:35:17;101025.66;;;22.88;63.60
64298;BME280;50639;53.270;7.956;2023-06-26T05:37:43;101030.28;;;22.82;63.75
64298;BME280;50639;53.270;7.956;2023-06-26T05:40:10;101030.56;;;22.91;63.42
64298;BME280;50639;53.270;7.956;2023-06-26T05:42:36;101028.16;;;23.00;61.80
64298;BME280;50639;53.270;7.956;2023-06-26T05:45:02;101027.06;;;23.06;61.61
64298;BME280;50639;53.270;7.956;2023-06-26T05:47:27;101035.84;;;23.23;61.13
64298;BME280;50639;53.270;7.956;2023-06-26T05:49:53;101039.94;;;23.25;61.00
64298;BME280;50639;53.270;7.956;2023-06-26T05:52:18;101045.72;;;23.49;61.52
64298;BME280;50639;53.270;7.956;2023-06-26T05:54:44;101043.84;;;23.55;60.41
64298;BME280;50639;53.270;7.956;2023-06-26T05:57:10;101043.03;;;23.54;60.17
64298;BME280;50639;53.270;7.956;2023-06-26T05:59:39;101038.38;;;23.75;60.21
64298;BME280;50639;53.270;7.956;2023-06-26T06:02:05;101040.31;;;23.75;59.95
64298;BME280;50639;53.270;7.956;2023-06-26T06:04:30;101029.66;;;23.78;60.37
64298;BME280;50639;53.270;7.956;2023-06-26T06:06:56;101040.84;;;23.67;60.12
64298;BME280;50639;53.270;7.956;2023-06-26T06:09:21;101047.94;;;23.68;60.03
64298;BME280;50639;53.270;7.956;2023-06-26T06:11:47;101041.41;;;23.69;60.01
64298;BME280;50639;53.270;7.956;2023-06-26T06:14:12;101036.50;;;23.81;59.87
64298;BME280;50639;53.270;7.956;2023-06-26T06:16:38;101038.66;;;23.84;58.65
64298;BME280;50639;53.270;7.956;2023-06-26T06:19:03;101034.56;;;24.07;58.54
64298;BME280;50639;53.270;7.956;2023-06-26T06:21:32;101028.84;;;24.18;58.69
64298;BME280;50639;53.270;7.956;2023-06-26T06:23:57;101030.75;;;24.18;58.30
64298;BME280;50639;53.270;7.956;2023-06-26T06:26:24;101034.56;;;24.22;57.55
64298;BME280;50639;53.270;7.956;2023-06-26T06:28:50;101045.19;;;24.38;58.42
64298;BME280;50639;53.270;7.956;2023-06-26T06:31:15;101056.41;;;24.27;59.08
64298;BME280;50639;53.270;7.956;2023-06-26T06:33:41;101059.66;;;24.39;59.08
64298;BME280;50639;53.270;7.956;2023-06-26T06:36:07;101064.63;;;24.27;58.17
64298;BME280;50639;53.270;7.956;2023-06-26T06:38:33;101073.31;;;24.29;58.07
64298;BME280;50639;53.270;7.956;2023-06-26T06:41:00;101090.53;;;24.24;58.98
64298;BME280;50639;53.270;7.956;2023-06-26T06:43:25;101091.06;;;24.16;59.08
64298;BME280;50639;53.270;7.956;2023-06-26T06:45:52;101099.53;;;24.10;59.47
64298;BME280;50639;53.270;7.956;2023-06-26T06:48:17;101098.97;;;23.72;60.12
64298;BME280;50639;53.270;7.956;2023-06-26T06:50:43;101114.25;;;23.83;60.21
64298;BME280;50639;53.270;7.956;2023-06-26T06:53:09;101127.63;;;23.85;60.81
64298;BME280;50639;53.270;7.956;2023-06-26T06:55:34;101130.28;;;23.59;60.95
64298;BME280;50639;53.270;7.956;2023-06-26T06:57:59;101136.06;;;23.73;60.93
64298;BME280;50639;53.270;7.956;2023-06-26T07:00:25;101146.28;;;23.36;62.13
64298;BME280;50639;53.270;7.956;2023-06-26T07:02:50;101140.25;;;23.23;62.54
64298;BME280;50639;53.270;7.956;2023-06-26T07:05:16;101138.63;;;23.27;63.15
64298;BME280;50639;53.270;7.956;2023-06-26T07:07:41;101132.31;;;23.12;63.81
64298;BME280;50639;53.270;7.956;2023-06-26T07:10:09;101129.72;;;22.90;65.46
64298;BME280;50639;53.270;7.956;2023-06-26T07:12:36;101137.63;;;22.86;65.74
64298;BME280;50639;53.270;7.956;2023-06-26T07:15:03;101131.94;;;22.98;66.56
64298;BME280;50639;53.270;7.956;2023-06-26T07:17:33;101158.63;;;22.91;65.80
64298;BME280;50639;53.270;7.956;2023-06-26T07:20:00;101155.84;;;22.81;65.72
64298;BME280;50639;53.270;7.956;2023-06-26T07:22:26;101163.09;;;22.70;66.87
64298;BME280;50639;53.270;7.956;2023-06-26T07:24:51;101184.22;;;22.90;67.18
64298;BME280;50639;53.270;7.956;2023-06-26T07:27:18;101187.19;;;22.88;67.00
64298;BME280;50639;53.270;7.956;2023-06-26T07:29:44;101195.56;;;22.45;67.75
64298;BME280;50639;53.270;7.956;2023-06-26T07:32:10;101218.97;;;22.41;69.02
64298;BME280;50639;53.270;7.956;2023-06-26T07:34:35;101241.75;;;22.08;72.99
64298;BME280;50639;53.270;7.956;2023-06-26T07:37:01;101232.50;;;21.60;75.94
64298;BME280;50639;53.270;7.956;2023-06-26T07:39:26;101253.28;;;20.94;76.24
64298;BME280;50639;53.270;7.956;2023-06-26T07:41:52;101240.63;;;21.00;76.94
64298;BME280;50639;53.270;7.956;2023-06-26T07:44:17;101232.75;;;20.82;77.20
64298;BME280;50639;53.270;7.956;2023-06-26T07:46:43;101238.75;;;20.84;77.27
64298;BME280;50639;53.270;7.956;2023-06-26T07:49:10;101242.53;;;20.99;76.44
64298;BME280;50639;53.270;7.956;2023-06-26T07:51:36;101242.03;;;21.19;75.87
64298;BME280;50639;53.270;7.956;2023-06-26T07:54:03;101231.59;;;21.33;75.16
64298;BME280;50639;53.270;7.956;2023-06-26T07:56:29;101244.59;;;20.92;75.08
64298;BME280;50639;53.270;7.956;2023-06-26T07:58:54;101256.75;;;21.07;75.10
64298;BME280;50639;53.270;7.956;2023-06-26T08:01:20;101257.09;;;21.10;74.95
64298;BME280;50639;53.270;7.956;2023-06-26T08:03:46;101240.53;;;21.28;74.44
64298;BME280;50639;53.270;7.956;2023-06-26T08:06:11;101240.78;;;21.49;74.02
64298;BME280;50639;53.270;7.956;2023-06-26T08:08:37;101253.78;;;21.47;73.59
64298;BME280;50639;53.270;7.956;2023-06-26T08:11:02;101266.78;;;21.23;73.27
64298;BME280;50639;53.270;7.956;2023-06-26T08:13:28;101258.97;;;21.48;74.09
64298;BME280;50639;53.270;7.956;2023-06-26T08:15:53;101263.44;;;21.54;72.16
64298;BME280;50639;53.270;7.956;2023-06-26T08:18:20;101269.84;;;21.48;70.70
64298;BME280;50639;53.270;7.956;2023-06-26T08:20:45;101259.06;;;21.75;69.66
64298;BME280;50639;53.270;7.956;2023-06-26T08:23:10;101265.47;;;21.91;69.35
64298;BME280;50639;53.270;7.956;2023-06-26T08:25:36;101256.94;;;21.82;67.42
64298;BME280;50639;53.270;7.956;2023-06-26T08:28:01;101263.88;;;21.90;67.34
64298;BME280;50639;53.270;7.956;2023-06-26T08:30:27;101265.00;;;21.50;66.93
64298;BME280;50639;53.270;7.956;2023-06-26T08:32:57;101257.22;;;21.59;67.54
64298;BME280;50639;53.270;7.956;2023-06-26T08:35:23;101270.19;;;21.73;65.71
64298;BME280;50639;53.270;7.956;2023-06-26T08:37:49;101264.56;;;21.80;64.31
64298;BME280;50639;53.270;7.956;2023-06-26T08:40:17;101275.63;;;21.73;63.30
64298;BME280;50639;53.270;7.956;2023-06-26T08:42:46;101273.56;;;22.02;64.73
64298;BME280;50639;53.270;7.956;2023-06-26T08:45:12;101290.59;;;22.20;62.10
64298;BME280;50639;53.270;7.956;2023-06-26T08:47:38;101293.75;;;22.33;62.73
64298;BME280;50639;53.270;7.956;2023-06-26T08:50:13;101296.38;;;22.23;60.18
64298;BME280;50639;53.270;7.956;2023-06-26T08:53:28;101293.75;;;22.33;59.44
64298;BME280;50639;53.270;7.956;2023-06-26T08:55:57;101301.44;;;22.14;59.18
64298;BME280;50639;53.270;7.956;2023-06-26T08:58:23;101291.03;;;22.60;58.59
64298;BME280;50639;53.270;7.956;2023-06-26T09:00:49;101307.66;;;22.64;58.70
64298;BME280;50639;53.270;7.956;2023-06-26T09:03:15;101306.56;;;22.33;59.76
64298;BME280;50639;53.270;7.956;2023-06-26T09:05:41;101312.28;;;22.36;58.98
64298;BME280;50639;53.270;7.956;2023-06-26T09:08:07;101323.06;;;22.26;59.50
64298;BME280;50639;53.270;7.956;2023-06-26T09:10:33;101320.97;;;22.33;59.72
64298;BME280;50639;53.270;7.956;2023-06-26T09:12:59;101335.25;;;22.45;57.60
64298;BME280;50639;53.270;7.956;2023-06-26T09:15:27;101347.09;;;22.34;56.95
64298;BME280;50639;53.270;7.956;2023-06-26T09:17:58;101332.53;;;22.45;58.02
64298;BME280;50639;53.270;7.956;2023-06-26T09:20:27;101345.63;;;22.48;57.68
64298;BME280;50639;53.270;7.956;2023-06-26T09:22:55;101345.31;;;22.45;55.75
64298;BME280;50639;53.270;7.956;2023-06-26T09:25:22;101388.00;;;22.18;55.93
64298;BME280;50639;53.270;7.956;2023-06-26T09:27:48;101346.66;;;22.42;56.67
64298;BME280;50639;53.270;7.956;2023-06-26T09:30:17;101367.47;;;22.05;56.77
64298;BME280;50639;53.270;7.956;2023-06-26T09:32:42;101366.53;;;21.77;55.54
64298;BME280;50639;53.270;7.956;2023-06-26T09:35:08;101380.81;;;22.06;57.13
64298;BME280;50639;53.270;7.956;2023-06-26T09:37:34;101384.59;;;22.05;56.31
64298;BME280;50639;53.270;7.956;2023-06-26T09:39:59;101350.97;;;22.38;54.05
64298;BME280;50639;53.270;7.956;2023-06-26T09:42:25;101392.28;;;22.57;55.46
64298;BME280;50639;53.270;7.956;2023-06-26T09:44:50;101392.94;;;22.91;55.29
64298;BME280;50639;53.270;7.956;2023-06-26T09:47:18;101393.22;;;22.68;55.20
64298;BME280;50639;53.270;7.956;2023-06-26T09:49:44;101403.69;;;22.76;56.00
64298;BME280;50639;53.270;7.956;2023-06-26T09:52:14;101405.88;;;22.30;54.79
64298;BME280;50639;53.270;7.956;2023-06-26T09:54:42;101417.19;;;22.22;55.74
64298;BME280;50639;53.270;7.956;2023-06-26T09:57:13;101414.91;;;22.14;55.67
64298;BME280;50639;53.270;7.956;2023-06-26T09:59:40;101446.38;;;22.05;54.56
64298;BME280;50639;53.270;7.956;2023-06-26T10:02:06;101421.94;;;22.32;55.93
64298;BME280;50639;53.270;7.956;2023-06-26T10:04:32;101422.25;;;22.35;55.82
64298;BME280;50639;53.270;7.956;2023-06-26T10:07:01;101415.78;;;22.85;53.97
64298;BME280;50639;53.270;7.956;2023-06-26T10:09:29;101427.38;;;22.75;53.74
64298;BME280;50639;53.270;7.956;2023-06-26T10:14:31;101434.88;;;22.90;54.18
64298;BME280;50639;53.270;7.956;2023-06-26T10:17:01;101435.38;;;22.87;51.91
64298;BME280;50639;53.270;7.956;2023-06-26T10:19:29;101428.72;;;22.29;54.00
64298;BME280;50639;53.270;7.956;2023-06-26T10:21:58;101438.66;;;22.40;53.98
64298;BME280;50639;53.270;7.956;2023-06-26T10:24:26;101419.44;;;22.52;53.39
64298;BME280;50639;53.270;7.956;2023-06-26T10:27:08;101445.97;;;22.62;53.67
64298;BME280;50639;53.270;7.956;2023-06-26T10:29:37;101445.81;;;22.46;53.57
64298;BME280;50639;53.270;7.956;2023-06-26T10:32:03;101453.22;;;22.51;53.16
64298;BME280;50639;53.270;7.956;2023-06-26T10:34:30;101444.41;;;22.44;53.39
64298;BME280;50639;53.270;7.956;2023-06-26T10:37:00;101445.16;;;22.61;52.94
64298;BME280;50639;53.270;7.956;2023-06-26T10:42:11;101447.63;;;22.84;53.65
64298;BME280;50639;53.270;7.956;2023-06-26T10:44:43;101447.63;;;23.11;52.06
64298;BME280;50639;53.270;7.956;2023-06-26T10:47:10;101449.50;;;23.38;51.21
64298;BME280;50639;53.270;7.956;2023-06-26T10:49:37;101450.97;;;23.18;51.08
64298;BME280;50639;53.270;7.956;2023-06-26T10:52:04;101460.91;;;23.35;49.67
64298;BME280;50639;53.270;7.956;2023-06-26T10:54:31;101460.00;;;22.97;50.60
64298;BME280;50639;53.270;7.956;2023-06-26T10:56:57;101467.22;;;22.81;52.07
64298;BME280;50639;53.270;7.956;2023-06-26T10:59:28;101473.22;;;22.40;51.83
64298;BME280;50639;53.270;7.956;2023-06-26T11:01:58;101481.44;;;22.23;51.79
64298;BME280;50639;53.270;7.956;2023-06-26T11:04:40;101474.63;;;22.42;53.50
64298;BME280;50639;53.270;7.956;2023-06-26T11:07:25;101475.50;;;22.48;52.21
64298;BME280;50639;53.270;7.956;2023-06-26T11:10:07;101465.09;;;22.88;52.90
64298;BME280;50639;53.270;7.956;2023-06-26T11:12:53;101459.63;;;23.74;51.65
64298;BME280;50639;53.270;7.956;2023-06-26T11:15:20;101471.47;;;23.26;49.97
64298;BME280;50639;53.270;7.956;2023-06-26T11:17:46;101489.88;;;23.14;50.08
64298;BME280;50639;53.270;7.956;2023-06-26T11:20:14;101496.16;;;22.66;50.56
64298;BME280;50639;53.270;7.956;2023-06-26T11:22:42;101478.78;;;22.06;52.83
64298;BME280;50639;53.270;7.956;2023-06-26T11:25:09;101482.41;;;22.34;52.95
64298;BME280;50639;53.270;7.956;2023-06-26T11:27:40;101494.50;;;22.04;53.15
64298;BME280;50639;53.270;7.956;2023-06-26T11:30:07;101481.00;;;22.31;53.54
64298;BME280;50639;53.270;7.956;2023-06-26T11:32:33;101484.94;;;22.84;51.99
64298;BME280;50639;53.270;7.956;2023-06-26T11:34:59;101482.34;;;22.94;52.46
64298;BME280;50639;53.270;7.956;2023-06-26T11:37:25;101481.53;;;23.20;51.98
64298;BME280;50639;53.270;7.956;2023-06-26T11:39:51;101495.44;;;23.51;50.24
64298;BME280;50639;53.270;7.956;2023-06-26T11:42:17;101480.63;;;23.74;51.28
64298;BME280;50639;53.270;7.956;2023-06-26T11:44:44;101469.66;;;24.06;50.62
64298;BME280;50639;53.270;7.956;2023-06-26T11:47:17;101498.09;;;23.46;50.41
64298;BME280;50639;53.270;7.956;2023-06-26T11:49:44;101495.31;;;22.87;50.63
64298;BME280;50639;53.270;7.956;2023-06-26T11:52:11;101501.88;;;22.86;52.16
64298;BME280;50639;53.270;7.956;2023-06-26T11:54:37;101501.03;;;22.42;52.12
64298;BME280;50639;53.270;7.956;2023-06-26T11:57:03;101511.09;;;22.41;52.23
64298;BME280;50639;53.270;7.956;2023-06-26T11:59:39;101516.94;;;22.50;53.34
64298;BME280;50639;53.270;7.956;2023-06-26T12:02:10;101515.56;;;22.52;53.45
64298;BME280;50639;53.270;7.956;2023-06-26T12:04:37;101519.28;;;22.85;53.12
64298;BME280;50639;53.270;7.956;2023-06-26T12:07:05;101522.94;;;22.74;52.54
64298;BME280;50639;53.270;7.956;2023-06-26T12:09:37;101516.59;;;22.46;53.19
64298;BME280;50639;53.270;7.956;2023-06-26T12:12:03;101526.94;;;22.66;52.49
64298;BME280;50639;53.270;7.956;2023-06-26T12:14:30;101529.47;;;22.73;53.32
64298;BME280;50639;53.270;7.956;2023-06-26T12:17:03;101534.72;;;23.01;53.20
64298;BME280;50639;53.270;7.956;2023-06-26T12:19:29;101522.19;;;23.00;52.43
64298;BME280;50639;53.270;7.956;2023-06-26T12:21:55;101539.69;;;22.44;51.57
64298;BME280;50639;53.270;7.956;2023-06-26T12:24:23;101538.94;;;22.10;53.34
64298;BME280;50639;53.270;7.956;2023-06-26T12:26:53;101544.19;;;22.33;50.68
64298;BME280;50639;53.270;7.956;2023-06-26T12:29:21;101522.53;;;22.82;50.80
64298;BME280;50639;53.270;7.956;2023-06-26T12:31:52;101529.91;;;23.08;48.27
64298;BME280;50639;53.270;7.956;2023-06-26T12:34:31;101529.56;;;23.05;49.47
64298;BME280;50639;53.270;7.956;2023-06-26T12:37:06;101523.84;;;23.01;49.50
64298;BME280;50639;53.270;7.956;2023-06-26T12:39:51;101552.03;;;22.90;49.12
64298;BME280;50639;53.270;7.956;2023-06-26T12:42:19;101539.72;;;22.66;49.97
64298;BME280;50639;53.270;7.956;2023-06-26T12:44:44;101549.22;;;22.41;49.08
64298;BME280;50639;53.270;7.956;2023-06-26T12:47:11;101542.75;;;22.47;48.96
64298;BME280;50639;53.270;7.956;2023-06-26T12:49:43;101538.22;;;22.36;50.38
64298;BME280;50639;53.270;7.956;2023-06-26T12:52:11;101537.00;;;22.66;51.19
64298;BME280;50639;53.270;7.956;2023-06-26T12:54:39;101528.09;;;22.92;50.48
64298;BME280;50639;53.270;7.956;2023-06-26T12:57:05;101541.53;;;23.25;49.26
64298;BME280;50639;53.270;7.956;2023-06-26T12:59:31;101551.00;;;23.18;47.69
64298;BME280;50639;53.270;7.956;2023-06-26T13:01:59;101549.84;;;22.70;48.14
64298;BME280;50639;53.270;7.956;2023-06-26T13:04:24;101555.19;;;22.43;48.97